sensor_id;sensor_type;location;lat;lon;timestamp;P1;durP1;ratioP1;P2;durP2;ratioP2
45684;SDS011;46836;48.388;16.210;2023-01-29T00:01:55;10.25;;;5.85;;
45684;SDS011;46836;48.388;16.210;2023-01-29T00:04:22;25.85;;;11.32;;
45684;SDS011;46836;48.388;16.210;2023-01-29T00:06:50;7.95;;;5.07;;
45684;SDS011;46836;48.388;16.210;2023-01-29T00:09:17;8.45;;;5.95;;
45684;SDS011;46836;48.388;16.210;2023-01-29T00:11:44;7.88;;;5.78;;
45684;SDS011;46836;48.388;16.210;2023-01-29T00:14:11;5.65;;;4.40;;
45684;SDS011;46836;48.388;16.210;2023-01-29T00:16:38;9.45;;;5.05;;
45684;SDS011;46836;48.388;16.210;2023-01-29T00:19:06;12.00;;;5.70;;
45684;SDS011;46836;48.388;16.210;2023-01-29T00:21:33;7.57;;;4.10;;
45684;SDS011;46836;48.388;16.210;2023-01-29T00:24:00;7.32;;;4.55;;
45684;SDS011;46836;48.388;16.210;2023-01-29T00:26:27;6.05;;;4.20;;
45684;SDS011;46836;48.388;16.210;2023-01-29T00:28:54;6.90;;;5.05;;
45684;SDS011;46836;48.388;16.210;2023-01-29T00:31:23;5.45;;;4.30;;
45684;SDS011;46836;48.388;16.210;2023-01-29T00:33:51;5.10;;;3.63;;
45684;SDS011;46836;48.388;16.210;2023-01-29T00:36:19;6.22;;;4.63;;
45684;SDS011;46836;48.388;16.210;2023-01-29T00:38:47;6.50;;;4.40;;
45684;SDS011;46836;48.388;16.210;2023-01-29T00:41:28;4.97;;;3.83;;
45684;SDS011;46836;48.388;16.210;2023-01-29T00:44:15;7.30;;;4.70;;
45684;SDS011;46836;48.388;16.210;2023-01-29T00:47:02;9.38;;;3.90;;
45684;SDS011;46836;48.388;16.210;2023-01-29T00:49:30;5.20;;;4.05;;
45684;SDS011;46836;48.388;16.210;2023-01-29T00:51:57;7.93;;;4.93;;
45684;SDS011;46836;48.388;16.210;2023-01-29T00:54:43;6.22;;;4.35;;
45684;SDS011;46836;48.388;16.210;2023-01-29T00:57:10;5.97;;;3.88;;
45684;SDS011;46836;48.388;16.210;2023-01-29T00:59:37;7.75;;;4.45;;
45684;SDS011;46836;48.388;16.210;2023-01-29T01:02:04;4.60;;;3.75;;
45684;SDS011;46836;48.388;16.210;2023-01-29T01:04:49;6.47;;;3.65;;
45684;SDS011;46836;48.388;16.210;2023-01-29T01:07:16;5.30;;;3.35;;
45684;SDS011;46836;48.388;16.210;2023-01-29T01:09:44;6.82;;;4.13;;
45684;SDS011;46836;48.388;16.210;2023-01-29T01:12:30;4.97;;;3.80;;
45684;SDS011;46836;48.388;16.210;2023-01-29T01:14:57;4.93;;;3.60;;
45684;SDS011;46836;48.388;16.210;2023-01-29T01:17:24;4.88;;;3.78;;
45684;SDS011;46836;48.388;16.210;2023-01-29T01:19:51;5.40;;;3.80;;
45684;SDS011;46836;48.388;16.210;2023-01-29T01:22:19;6.20;;;4.20;;
45684;SDS011;46836;48.388;16.210;2023-01-29T01:24:46;7.90;;;4.10;;
45684;SDS011;46836;48.388;16.210;2023-01-29T01:27:13;5.93;;;3.75;;
45684;SDS011;46836;48.388;16.210;2023-01-29T01:29:40;6.50;;;4.13;;
45684;SDS011;46836;48.388;16.210;2023-01-29T01:32:07;8.25;;;4.40;;
45684;SDS011;46836;48.388;16.210;2023-01-29T01:34:34;5.03;;;4.18;;
45684;SDS011;46836;48.388;16.210;2023-01-29T01:37:01;5.55;;;4.47;;
45684;SDS011;46836;48.388;16.210;2023-01-29T01:39:28;6.47;;;4.32;;
45684;SDS011;46836;48.388;16.210;2023-01-29T01:41:56;4.95;;;4.05;;
45684;SDS011;46836;48.388;16.210;2023-01-29T01:47:22;9.02;;;5.10;;
45684;SDS011;46836;48.388;16.210;2023-01-29T01:50:03;5.85;;;4.60;;
45684;SDS011;46836;48.388;16.210;2023-01-29T01:52:42;7.50;;;4.45;;
45684;SDS011;46836;48.388;16.210;2023-01-29T01:55:14;6.30;;;4.55;;
45684;SDS011;46836;48.388;16.210;2023-01-29T01:57:44;6.32;;;4.53;;
45684;SDS011;46836;48.388;16.210;2023-01-29T02:00:16;6.93;;;4.38;;
45684;SDS011;46836;48.388;16.210;2023-01-29T02:02:45;8.43;;;4.90;;
45684;SDS011;46836;48.388;16.210;2023-01-29T02:05:33;5.35;;;3.78;;
45684;SDS011;46836;48.388;16.210;2023-01-29T02:08:31;7.47;;;5.00;;
45684;SDS011;46836;48.388;16.210;2023-01-29T02:11:46;8.10;;;4.30;;
45684;SDS011;46836;48.388;16.210;2023-01-29T02:14:13;7.85;;;4.95;;
45684;SDS011;46836;48.388;16.210;2023-01-29T02:16:41;5.45;;;4.28;;
45684;SDS011;46836;48.388;16.210;2023-01-29T02:19:10;6.35;;;4.30;;
45684;SDS011;46836;48.388;16.210;2023-01-29T02:27:14;6.70;;;4.20;;
45684;SDS011;46836;48.388;16.210;2023-01-29T02:35:28;9.15;;;5.63;;
45684;SDS011;46836;48.388;16.210;2023-01-29T02:41:01;6.30;;;4.60;;
45684;SDS011;46836;48.388;16.210;2023-01-29T02:43:50;8.50;;;5.07;;
45684;SDS011;46836;48.388;16.210;2023-01-29T02:46:34;6.95;;;4.68;;
45684;SDS011;46836;48.388;16.210;2023-01-29T02:51:40;10.93;;;5.20;;
45684;SDS011;46836;48.388;16.210;2023-01-29T02:54:18;5.93;;;4.85;;
45684;SDS011;46836;48.388;16.210;2023-01-29T02:56:59;6.22;;;5.00;;
45684;SDS011;46836;48.388;16.210;2023-01-29T02:59:36;7.28;;;4.97;;
45684;SDS011;46836;48.388;16.210;2023-01-29T03:02:13;8.38;;;5.07;;
45684;SDS011;46836;48.388;16.210;2023-01-29T03:04:52;6.47;;;5.07;;
45684;SDS011;46836;48.388;16.210;2023-01-29T03:07:26;6.90;;;5.30;;
45684;SDS011;46836;48.388;16.210;2023-01-29T03:12:44;7.07;;;4.80;;
45684;SDS011;46836;48.388;16.210;2023-01-29T03:15:17;7.70;;;5.18;;
45684;SDS011;46836;48.388;16.210;2023-01-29T03:20:33;8.57;;;4.82;;
45684;SDS011;46836;48.388;16.210;2023-01-29T03:23:16;8.65;;;4.07;;
45684;SDS011;46836;48.388;16.210;2023-01-29T03:26:14;6.45;;;4.60;;
45684;SDS011;46836;48.388;16.210;2023-01-29T03:29:02;5.10;;;4.15;;
45684;SDS011;46836;48.388;16.210;2023-01-29T03:31:48;8.65;;;4.75;;
45684;SDS011;46836;48.388;16.210;2023-01-29T03:34:29;5.35;;;4.15;;
45684;SDS011;46836;48.388;16.210;2023-01-29T03:37:06;6.90;;;5.38;;
45684;SDS011;46836;48.388;16.210;2023-01-29T03:39:36;8.32;;;5.20;;
45684;SDS011;46836;48.388;16.210;2023-01-29T03:49:59;7.35;;;4.97;;
45684;SDS011;46836;48.388;16.210;2023-01-29T03:58:21;7.38;;;4.80;;
45684;SDS011;46836;48.388;16.210;2023-01-29T04:01:01;7.25;;;5.03;;
45684;SDS011;46836;48.388;16.210;2023-01-29T04:03:41;5.55;;;3.75;;
45684;SDS011;46836;48.388;16.210;2023-01-29T04:06:30;3.35;;;2.78;;
45684;SDS011;46836;48.388;16.210;2023-01-29T04:09:05;4.43;;;3.30;;
45684;SDS011;46836;48.388;16.210;2023-01-29T04:11:44;6.60;;;3.28;;
45684;SDS011;46836;48.388;16.210;2023-01-29T04:14:15;5.15;;;3.25;;
45684;SDS011;46836;48.388;16.210;2023-01-29T04:16:45;3.55;;;3.00;;
45684;SDS011;46836;48.388;16.210;2023-01-29T04:19:16;3.53;;;2.90;;
45684;SDS011;46836;48.388;16.210;2023-01-29T04:21:44;4.00;;;3.00;;
45684;SDS011;46836;48.388;16.210;2023-01-29T04:24:14;3.42;;;2.97;;
45684;SDS011;46836;48.388;16.210;2023-01-29T04:26:49;3.53;;;2.85;;
45684;SDS011;46836;48.388;16.210;2023-01-29T04:37:26;3.20;;;2.90;;
45684;SDS011;46836;48.388;16.210;2023-01-29T04:40:22;4.80;;;3.40;;
45684;SDS011;46836;48.388;16.210;2023-01-29T04:43:06;4.22;;;2.90;;
45684;SDS011;46836;48.388;16.210;2023-01-29T04:45:55;3.75;;;3.13;;
45684;SDS011;46836;48.388;16.210;2023-01-29T04:59:34;6.63;;;3.90;;
45684;SDS011;46836;48.388;16.210;2023-01-29T05:02:07;6.13;;;4.30;;
45684;SDS011;46836;48.388;16.210;2023-01-29T05:04:37;4.85;;;3.40;;
45684;SDS011;46836;48.388;16.210;2023-01-29T05:07:08;4.95;;;3.75;;
45684;SDS011;46836;48.388;16.210;2023-01-29T05:09:41;6.30;;;4.10;;
45684;SDS011;46836;48.388;16.210;2023-01-29T05:12:11;5.22;;;3.95;;
45684;SDS011;46836;48.388;16.210;2023-01-29T05:14:40;5.55;;;3.88;;
45684;SDS011;46836;48.388;16.210;2023-01-29T05:17:13;6.15;;;4.00;;
45684;SDS011;46836;48.388;16.210;2023-01-29T05:19:44;6.00;;;3.83;;
45684;SDS011;46836;48.388;16.210;2023-01-29T05:22:12;7.90;;;4.32;;
45684;SDS011;46836;48.388;16.210;2023-01-29T05:24:43;7.47;;;4.45;;
45684;SDS011;46836;48.388;16.210;2023-01-29T05:27:14;4.72;;;3.88;;
45684;SDS011;46836;48.388;16.210;2023-01-29T05:30:04;6.13;;;4.13;;
45684;SDS011;46836;48.388;16.210;2023-01-29T05:32:32;6.53;;;4.00;;
45684;SDS011;46836;48.388;16.210;2023-01-29T05:34:59;4.80;;;3.85;;
45684;SDS011;46836;48.388;16.210;2023-01-29T05:37:26;7.85;;;4.65;;
45684;SDS011;46836;48.388;16.210;2023-01-29T05:39:53;7.60;;;4.45;;
45684;SDS011;46836;48.388;16.210;2023-01-29T05:42:20;5.93;;;3.97;;
45684;SDS011;46836;48.388;16.210;2023-01-29T05:44:47;7.10;;;3.63;;
45684;SDS011;46836;48.388;16.210;2023-01-29T05:47:17;7.28;;;4.72;;
45684;SDS011;46836;48.388;16.210;2023-01-29T05:49:45;6.40;;;4.40;;
45684;SDS011;46836;48.388;16.210;2023-01-29T05:52:12;4.65;;;3.47;;
45684;SDS011;46836;48.388;16.210;2023-01-29T05:54:39;5.72;;;4.28;;
45684;SDS011;46836;48.388;16.210;2023-01-29T05:57:06;5.57;;;4.32;;
45684;SDS011;46836;48.388;16.210;2023-01-29T05:59:33;6.53;;;5.10;;
45684;SDS011;46836;48.388;16.210;2023-01-29T06:02:00;6.38;;;4.70;;
45684;SDS011;46836;48.388;16.210;2023-01-29T06:04:28;3.80;;;3.35;;
45684;SDS011;46836;48.388;16.210;2023-01-29T06:06:55;6.53;;;4.88;;
45684;SDS011;46836;48.388;16.210;2023-01-29T06:09:22;8.73;;;5.70;;
45684;SDS011;46836;48.388;16.210;2023-01-29T06:11:49;11.05;;;5.50;;
45684;SDS011;46836;48.388;16.210;2023-01-29T06:14:16;18.55;;;8.82;;
45684;SDS011;46836;48.388;16.210;2023-01-29T06:16:43;12.80;;;5.90;;
45684;SDS011;46836;48.388;16.210;2023-01-29T06:19:10;12.13;;;6.32;;
45684;SDS011;46836;48.388;16.210;2023-01-29T06:21:37;12.60;;;8.27;;
45684;SDS011;46836;48.388;16.210;2023-01-29T06:24:04;13.13;;;7.15;;
45684;SDS011;46836;48.388;16.210;2023-01-29T06:26:31;10.90;;;6.00;;
45684;SDS011;46836;48.388;16.210;2023-01-29T06:28:58;13.07;;;6.88;;
45684;SDS011;46836;48.388;16.210;2023-01-29T06:31:25;10.00;;;5.10;;
45684;SDS011;46836;48.388;16.210;2023-01-29T06:34:04;8.75;;;5.32;;
45684;SDS011;46836;48.388;16.210;2023-01-29T06:36:32;9.40;;;6.97;;
45684;SDS011;46836;48.388;16.210;2023-01-29T06:39:00;7.47;;;4.70;;
45684;SDS011;46836;48.388;16.210;2023-01-29T06:41:27;5.60;;;4.20;;
45684;SDS011;46836;48.388;16.210;2023-01-29T06:43:55;7.45;;;4.95;;
45684;SDS011;46836;48.388;16.210;2023-01-29T06:46:22;5.68;;;4.65;;
45684;SDS011;46836;48.388;16.210;2023-01-29T06:48:49;7.53;;;5.43;;
45684;SDS011;46836;48.388;16.210;2023-01-29T06:51:16;5.60;;;4.95;;
45684;SDS011;46836;48.388;16.210;2023-01-29T06:53:43;6.50;;;5.30;;
45684;SDS011;46836;48.388;16.210;2023-01-29T06:56:11;8.23;;;5.57;;
45684;SDS011;46836;48.388;16.210;2023-01-29T06:58:39;14.77;;;10.13;;
45684;SDS011;46836;48.388;16.210;2023-01-29T07:01:08;15.45;;;8.25;;
45684;SDS011;46836;48.388;16.210;2023-01-29T07:03:50;6.03;;;5.28;;
45684;SDS011;46836;48.388;16.210;2023-01-29T07:06:17;7.60;;;5.15;;
45684;SDS011;46836;48.388;16.210;2023-01-29T07:08:45;12.57;;;6.90;;
45684;SDS011;46836;48.388;16.210;2023-01-29T07:11:12;7.07;;;5.95;;
45684;SDS011;46836;48.388;16.210;2023-01-29T07:13:39;8.38;;;6.55;;
45684;SDS011;46836;48.388;16.210;2023-01-29T07:16:06;11.80;;;5.78;;
45684;SDS011;46836;48.388;16.210;2023-01-29T07:18:33;9.15;;;6.00;;
45684;SDS011;46836;48.388;16.210;2023-01-29T07:21:02;8.70;;;5.90;;
45684;SDS011;46836;48.388;16.210;2023-01-29T07:23:33;8.40;;;5.82;;
45684;SDS011;46836;48.388;16.210;2023-01-29T07:26:01;7.65;;;5.20;;
45684;SDS011;46836;48.388;16.210;2023-01-29T07:28:30;10.15;;;5.90;;
45684;SDS011;46836;48.388;16.210;2023-01-29T07:30:57;10.30;;;5.28;;
45684;SDS011;46836;48.388;16.210;2023-01-29T07:33:24;8.55;;;5.07;;
45684;SDS011;46836;48.388;16.210;2023-01-29T07:35:52;6.15;;;4.50;;
45684;SDS011;46836;48.388;16.210;2023-01-29T07:38:19;8.35;;;5.38;;
45684;SDS011;46836;48.388;16.210;2023-01-29T07:40:46;6.00;;;4.40;;
45684;SDS011;46836;48.388;16.210;2023-01-29T07:43:14;7.10;;;5.63;;
45684;SDS011;46836;48.388;16.210;2023-01-29T07:45:42;7.72;;;6.10;;
45684;SDS011;46836;48.388;16.210;2023-01-29T07:48:10;9.35;;;5.72;;
45684;SDS011;46836;48.388;16.210;2023-01-29T07:50:38;5.70;;;4.90;;
45684;SDS011;46836;48.388;16.210;2023-01-29T07:53:05;6.53;;;5.93;;
45684;SDS011;46836;48.388;16.210;2023-01-29T07:55:33;8.20;;;5.50;;
45684;SDS011;46836;48.388;16.210;2023-01-29T07:58:00;5.40;;;4.80;;
45684;SDS011;46836;48.388;16.210;2023-01-29T08:00:29;6.40;;;5.18;;
45684;SDS011;46836;48.388;16.210;2023-01-29T08:03:01;8.77;;;6.45;;
45684;SDS011;46836;48.388;16.210;2023-01-29T08:05:32;9.15;;;5.47;;
45684;SDS011;46836;48.388;16.210;2023-01-29T08:08:00;8.30;;;5.65;;
45684;SDS011;46836;48.388;16.210;2023-01-29T08:10:33;10.10;;;5.07;;
45684;SDS011;46836;48.388;16.210;2023-01-29T08:13:01;7.15;;;5.25;;
45684;SDS011;46836;48.388;16.210;2023-01-29T08:15:30;8.18;;;6.07;;
45684;SDS011;46836;48.388;16.210;2023-01-29T08:17:58;8.07;;;5.10;;
45684;SDS011;46836;48.388;16.210;2023-01-29T08:20:27;6.75;;;5.50;;
45684;SDS011;46836;48.388;16.210;2023-01-29T08:22:58;8.82;;;5.78;;
45684;SDS011;46836;48.388;16.210;2023-01-29T08:25:30;9.75;;;5.50;;
45684;SDS011;46836;48.388;16.210;2023-01-29T08:27:58;6.47;;;5.78;;
45684;SDS011;46836;48.388;16.210;2023-01-29T08:30:27;9.25;;;6.03;;
45684;SDS011;46836;48.388;16.210;2023-01-29T08:32:56;6.00;;;5.43;;
45684;SDS011;46836;48.388;16.210;2023-01-29T08:35:24;13.40;;;7.65;;
45684;SDS011;46836;48.388;16.210;2023-01-29T08:37:56;8.80;;;5.88;;
45684;SDS011;46836;48.388;16.210;2023-01-29T08:40:29;7.18;;;5.97;;
45684;SDS011;46836;48.388;16.210;2023-01-29T08:42:58;10.75;;;6.65;;
45684;SDS011;46836;48.388;16.210;2023-01-29T08:45:29;9.60;;;5.85;;
45684;SDS011;46836;48.388;16.210;2023-01-29T08:47:56;8.88;;;6.40;;
45684;SDS011;46836;48.388;16.210;2023-01-29T08:50:23;7.55;;;6.07;;
45684;SDS011;46836;48.388;16.210;2023-01-29T08:52:50;9.60;;;6.50;;
45684;SDS011;46836;48.388;16.210;2023-01-29T08:55:22;9.02;;;6.80;;
45684;SDS011;46836;48.388;16.210;2023-01-29T08:57:49;5.70;;;5.00;;
45684;SDS011;46836;48.388;16.210;2023-01-29T09:00:16;8.88;;;5.90;;
45684;SDS011;46836;48.388;16.210;2023-01-29T09:02:44;8.18;;;6.13;;
45684;SDS011;46836;48.388;16.210;2023-01-29T09:05:11;8.18;;;5.55;;
45684;SDS011;46836;48.388;16.210;2023-01-29T09:07:38;10.60;;;6.57;;
45684;SDS011;46836;48.388;16.210;2023-01-29T09:10:05;10.48;;;6.38;;
45684;SDS011;46836;48.388;16.210;2023-01-29T09:12:33;7.03;;;5.55;;
45684;SDS011;46836;48.388;16.210;2023-01-29T09:15:00;9.93;;;6.38;;
45684;SDS011;46836;48.388;16.210;2023-01-29T09:17:27;7.95;;;6.13;;
45684;SDS011;46836;48.388;16.210;2023-01-29T09:19:54;8.05;;;5.75;;
45684;SDS011;46836;48.388;16.210;2023-01-29T09:22:21;7.90;;;5.20;;
45684;SDS011;46836;48.388;16.210;2023-01-29T09:24:48;7.45;;;5.70;;
45684;SDS011;46836;48.388;16.210;2023-01-29T09:27:15;7.85;;;5.72;;
45684;SDS011;46836;48.388;16.210;2023-01-29T09:29:42;7.28;;;5.78;;
45684;SDS011;46836;48.388;16.210;2023-01-29T09:32:09;8.82;;;6.70;;
45684;SDS011;46836;48.388;16.210;2023-01-29T09:34:36;7.32;;;5.30;;
45684;SDS011;46836;48.388;16.210;2023-01-29T09:37:03;8.90;;;5.90;;
45684;SDS011;46836;48.388;16.210;2023-01-29T09:39:30;11.55;;;6.50;;
45684;SDS011;46836;48.388;16.210;2023-01-29T09:45:14;10.18;;;6.45;;
45684;SDS011;46836;48.388;16.210;2023-01-29T09:47:47;13.57;;;6.97;;
45684;SDS011;46836;48.388;16.210;2023-01-29T09:50:18;7.05;;;6.05;;
45684;SDS011;46836;48.388;16.210;2023-01-29T09:52:57;8.60;;;6.15;;
45684;SDS011;46836;48.388;16.210;2023-01-29T09:55:32;7.68;;;4.72;;
45684;SDS011;46836;48.388;16.210;2023-01-29T09:58:12;7.75;;;5.63;;
45684;SDS011;46836;48.388;16.210;2023-01-29T10:09:26;8.35;;;6.25;;
45684;SDS011;46836;48.388;16.210;2023-01-29T10:25:48;10.43;;;6.53;;
45684;SDS011;46836;48.388;16.210;2023-01-29T10:30:50;10.05;;;6.13;;
45684;SDS011;46836;48.388;16.210;2023-01-29T10:33:45;8.55;;;6.47;;
45684;SDS011;46836;48.388;16.210;2023-01-29T10:36:35;10.55;;;6.90;;
45684;SDS011;46836;48.388;16.210;2023-01-29T10:39:20;9.02;;;6.65;;
45684;SDS011;46836;48.388;16.210;2023-01-29T10:45:02;8.50;;;6.60;;
45684;SDS011;46836;48.388;16.210;2023-01-29T10:47:54;7.78;;;5.82;;
45684;SDS011;46836;48.388;16.210;2023-01-29T10:53:32;8.98;;;6.28;;
45684;SDS011;46836;48.388;16.210;2023-01-29T10:56:09;8.90;;;6.15;;
45684;SDS011;46836;48.388;16.210;2023-01-29T10:58:58;6.95;;;5.60;;
45684;SDS011;46836;48.388;16.210;2023-01-29T11:01:30;7.75;;;6.15;;
45684;SDS011;46836;48.388;16.210;2023-01-29T11:04:00;7.18;;;5.70;;
45684;SDS011;46836;48.388;16.210;2023-01-29T11:06:32;7.65;;;6.10;;
45684;SDS011;46836;48.388;16.210;2023-01-29T11:14:35;8.13;;;6.40;;
45684;SDS011;46836;48.388;16.210;2023-01-29T11:17:22;11.40;;;6.88;;
45684;SDS011;46836;48.388;16.210;2023-01-29T11:19:52;7.03;;;5.32;;
45684;SDS011;46836;48.388;16.210;2023-01-29T11:22:24;8.30;;;6.68;;
45684;SDS011;46836;48.388;16.210;2023-01-29T11:27:45;6.72;;;5.70;;
45684;SDS011;46836;48.388;16.210;2023-01-29T11:32:51;8.95;;;7.18;;
45684;SDS011;46836;48.388;16.210;2023-01-29T11:35:38;8.77;;;6.13;;
45684;SDS011;46836;48.388;16.210;2023-01-29T11:38:07;10.32;;;6.20;;
45684;SDS011;46836;48.388;16.210;2023-01-29T11:40:44;8.23;;;6.05;;
45684;SDS011;46836;48.388;16.210;2023-01-29T11:43:30;9.02;;;6.38;;
45684;SDS011;46836;48.388;16.210;2023-01-29T11:46:04;10.98;;;6.35;;
45684;SDS011;46836;48.388;16.210;2023-01-29T11:51:30;11.43;;;5.78;;
45684;SDS011;46836;48.388;16.210;2023-01-29T11:54:00;14.63;;;6.63;;
45684;SDS011;46836;48.388;16.210;2023-01-29T11:56:39;15.02;;;6.35;;
45684;SDS011;46836;48.388;16.210;2023-01-29T12:02:12;7.07;;;6.03;;
45684;SDS011;46836;48.388;16.210;2023-01-29T12:04:52;10.00;;;6.35;;
45684;SDS011;46836;48.388;16.210;2023-01-29T12:07:22;10.40;;;7.45;;
45684;SDS011;46836;48.388;16.210;2023-01-29T12:09:54;8.65;;;6.07;;
45684;SDS011;46836;48.388;16.210;2023-01-29T12:12:30;8.30;;;6.82;;
45684;SDS011;46836;48.388;16.210;2023-01-29T12:15:03;9.73;;;6.65;;
45684;SDS011;46836;48.388;16.210;2023-01-29T12:17:40;7.72;;;6.32;;
45684;SDS011;46836;48.388;16.210;2023-01-29T12:20:15;6.82;;;6.13;;
45684;SDS011;46836;48.388;16.210;2023-01-29T12:23:00;7.30;;;6.22;;
45684;SDS011;46836;48.388;16.210;2023-01-29T12:28:30;8.93;;;6.88;;
45684;SDS011;46836;48.388;16.210;2023-01-29T12:31:11;11.45;;;7.28;;
45684;SDS011;46836;48.388;16.210;2023-01-29T12:33:54;9.00;;;6.40;;
45684;SDS011;46836;48.388;16.210;2023-01-29T12:39:19;11.00;;;7.68;;
45684;SDS011;46836;48.388;16.210;2023-01-29T12:44:38;8.05;;;5.82;;
45684;SDS011;46836;48.388;16.210;2023-01-29T12:47:14;9.18;;;7.25;;
45684;SDS011;46836;48.388;16.210;2023-01-29T12:49:47;9.07;;;6.10;;
45684;SDS011;46836;48.388;16.210;2023-01-29T12:52:19;9.18;;;6.43;;
45684;SDS011;46836;48.388;16.210;2023-01-29T12:54:55;8.30;;;6.30;;
45684;SDS011;46836;48.388;16.210;2023-01-29T12:57:32;10.82;;;7.03;;
45684;SDS011;46836;48.388;16.210;2023-01-29T13:00:22;7.45;;;6.30;;
45684;SDS011;46836;48.388;16.210;2023-01-29T13:05:58;10.23;;;7.70;;
45684;SDS011;46836;48.388;16.210;2023-01-29T13:08:31;10.43;;;6.93;;
45684;SDS011;46836;48.388;16.210;2023-01-29T13:11:07;8.90;;;7.05;;
45684;SDS011;46836;48.388;16.210;2023-01-29T13:16:56;10.55;;;7.35;;
45684;SDS011;46836;48.388;16.210;2023-01-29T13:19:34;11.32;;;7.22;;
45684;SDS011;46836;48.388;16.210;2023-01-29T13:22:09;9.32;;;7.43;;
45684;SDS011;46836;48.388;16.210;2023-01-29T13:24:48;11.43;;;7.95;;
45684;SDS011;46836;48.388;16.210;2023-01-29T13:27:30;15.23;;;7.28;;
45684;SDS011;46836;48.388;16.210;2023-01-29T13:29:59;10.27;;;6.90;;
45684;SDS011;46836;48.388;16.210;2023-01-29T13:32:28;11.05;;;8.15;;
45684;SDS011;46836;48.388;16.210;2023-01-29T13:35:04;13.68;;;8.73;;
45684;SDS011;46836;48.388;16.210;2023-01-29T13:37:46;8.63;;;6.57;;
45684;SDS011;46836;48.388;16.210;2023-01-29T13:40:22;10.95;;;7.90;;
45684;SDS011;46836;48.388;16.210;2023-01-29T13:42:52;14.55;;;8.68;;
45684;SDS011;46836;48.388;16.210;2023-01-29T13:45:24;12.77;;;7.15;;
45684;SDS011;46836;48.388;16.210;2023-01-29T13:51:02;11.35;;;6.53;;
45684;SDS011;46836;48.388;16.210;2023-01-29T13:54:02;8.50;;;6.30;;
45684;SDS011;46836;48.388;16.210;2023-01-29T13:56:41;9.55;;;7.00;;
45684;SDS011;46836;48.388;16.210;2023-01-29T13:59:49;8.52;;;6.72;;
45684;SDS011;46836;48.388;16.210;2023-01-29T14:02:20;10.80;;;7.60;;
45684;SDS011;46836;48.388;16.210;2023-01-29T14:05:31;12.20;;;7.75;;
45684;SDS011;46836;48.388;16.210;2023-01-29T14:10:29;10.73;;;7.10;;
45684;SDS011;46836;48.388;16.210;2023-01-29T14:15:30;12.13;;;8.80;;
45684;SDS011;46836;48.388;16.210;2023-01-29T14:20:33;8.77;;;6.90;;
45684;SDS011;46836;48.388;16.210;2023-01-29T14:26:02;10.52;;;6.82;;
45684;SDS011;46836;48.388;16.210;2023-01-29T14:28:32;14.02;;;6.63;;
45684;SDS011;46836;48.388;16.210;2023-01-29T14:31:01;9.57;;;7.10;;
45684;SDS011;46836;48.388;16.210;2023-01-29T14:33:34;10.93;;;7.88;;
45684;SDS011;46836;48.388;16.210;2023-01-29T14:36:10;13.27;;;7.18;;
45684;SDS011;46836;48.388;16.210;2023-01-29T14:38:39;16.90;;;11.07;;
45684;SDS011;46836;48.388;16.210;2023-01-29T14:47:00;23.73;;;14.60;;
45684;SDS011;46836;48.388;16.210;2023-01-29T14:55:47;14.65;;;10.40;;
45684;SDS011;46836;48.388;16.210;2023-01-29T15:01:34;12.20;;;9.32;;
45684;SDS011;46836;48.388;16.210;2023-01-29T15:04:19;17.55;;;9.07;;
45684;SDS011;46836;48.388;16.210;2023-01-29T15:07:11;23.65;;;11.38;;
45684;SDS011;46836;48.388;16.210;2023-01-29T15:09:55;13.82;;;9.27;;
45684;SDS011;46836;48.388;16.210;2023-01-29T15:12:51;13.40;;;8.60;;
45684;SDS011;46836;48.388;16.210;2023-01-29T15:15:36;9.02;;;6.38;;
45684;SDS011;46836;48.388;16.210;2023-01-29T15:20:44;11.45;;;8.18;;
45684;SDS011;46836;48.388;16.210;2023-01-29T15:23:28;15.80;;;9.20;;
45684;SDS011;46836;48.388;16.210;2023-01-29T15:26:00;18.02;;;12.35;;
45684;SDS011;46836;48.388;16.210;2023-01-29T15:28:30;11.07;;;8.88;;
45684;SDS011;46836;48.388;16.210;2023-01-29T15:31:00;13.20;;;9.60;;
45684;SDS011;46836;48.388;16.210;2023-01-29T15:33:30;14.68;;;9.10;;
45684;SDS011;46836;48.388;16.210;2023-01-29T15:36:01;15.07;;;9.80;;
45684;SDS011;46836;48.388;16.210;2023-01-29T15:38:33;13.70;;;8.45;;
45684;SDS011;46836;48.388;16.210;2023-01-29T15:41:01;10.88;;;7.05;;
45684;SDS011;46836;48.388;16.210;2023-01-29T15:43:45;10.90;;;7.13;;
45684;SDS011;46836;48.388;16.210;2023-01-29T15:46:34;12.88;;;8.48;;
45684;SDS011;46836;48.388;16.210;2023-01-29T15:49:06;10.25;;;6.80;;
45684;SDS011;46836;48.388;16.210;2023-01-29T15:51:35;8.80;;;5.78;;
45684;SDS011;46836;48.388;16.210;2023-01-29T15:54:05;9.60;;;6.70;;
45684;SDS011;46836;48.388;16.210;2023-01-29T15:56:47;7.95;;;5.55;;
45684;SDS011;46836;48.388;16.210;2023-01-29T15:59:19;16.23;;;8.25;;
45684;SDS011;46836;48.388;16.210;2023-01-29T16:01:51;11.18;;;7.10;;
45684;SDS011;46836;48.388;16.210;2023-01-29T16:04:21;14.45;;;7.88;;
45684;SDS011;46836;48.388;16.210;2023-01-29T16:06:53;12.75;;;8.95;;
45684;SDS011;46836;48.388;16.210;2023-01-29T16:09:22;9.85;;;6.80;;
45684;SDS011;46836;48.388;16.210;2023-01-29T16:11:53;9.93;;;7.68;;
45684;SDS011;46836;48.388;16.210;2023-01-29T16:14:24;12.43;;;8.80;;
45684;SDS011;46836;48.388;16.210;2023-01-29T16:16:54;11.05;;;7.35;;
45684;SDS011;46836;48.388;16.210;2023-01-29T16:19:24;15.07;;;9.40;;
45684;SDS011;46836;48.388;16.210;2023-01-29T16:22:01;12.57;;;7.72;;
45684;SDS011;46836;48.388;16.210;2023-01-29T16:24:31;12.50;;;7.38;;
45684;SDS011;46836;48.388;16.210;2023-01-29T16:27:12;14.90;;;9.38;;
45684;SDS011;46836;48.388;16.210;2023-01-29T16:29:42;19.60;;;10.13;;
45684;SDS011;46836;48.388;16.210;2023-01-29T16:32:10;18.13;;;10.85;;
45684;SDS011;46836;48.388;16.210;2023-01-29T16:34:40;21.65;;;10.55;;
45684;SDS011;46836;48.388;16.210;2023-01-29T16:37:35;24.65;;;12.55;;
45684;SDS011;46836;48.388;16.210;2023-01-29T16:40:12;25.08;;;12.02;;
45684;SDS011;46836;48.388;16.210;2023-01-29T16:46:02;20.80;;;9.98;;
45684;SDS011;46836;48.388;16.210;2023-01-29T16:48:32;20.67;;;9.48;;
45684;SDS011;46836;48.388;16.210;2023-01-29T16:51:04;19.25;;;10.73;;
45684;SDS011;46836;48.388;16.210;2023-01-29T16:53:39;13.43;;;8.35;;
45684;SDS011;46836;48.388;16.210;2023-01-29T16:56:22;10.88;;;6.57;;
45684;SDS011;46836;48.388;16.210;2023-01-29T16:58:58;13.60;;;7.82;;
45684;SDS011;46836;48.388;16.210;2023-01-29T17:01:28;12.05;;;7.35;;
45684;SDS011;46836;48.388;16.210;2023-01-29T17:04:05;75.13;;;27.58;;
45684;SDS011;46836;48.388;16.210;2023-01-29T17:06:37;16.00;;;10.10;;
45684;SDS011;46836;48.388;16.210;2023-01-29T17:09:15;44.35;;;22.20;;
45684;SDS011;46836;48.388;16.210;2023-01-29T17:11:51;25.35;;;13.93;;
45684;SDS011;46836;48.388;16.210;2023-01-29T17:14:26;16.95;;;10.10;;
45684;SDS011;46836;48.388;16.210;2023-01-29T17:17:03;20.60;;;10.07;;
45684;SDS011;46836;48.388;16.210;2023-01-29T17:19:33;12.63;;;8.23;;
45684;SDS011;46836;48.388;16.210;2023-01-29T17:22:01;17.65;;;9.63;;
45684;SDS011;46836;48.388;16.210;2023-01-29T17:24:33;15.52;;;9.65;;
45684;SDS011;46836;48.388;16.210;2023-01-29T17:27:01;14.90;;;8.43;;
45684;SDS011;46836;48.388;16.210;2023-01-29T17:29:29;16.63;;;9.45;;
45684;SDS011;46836;48.388;16.210;2023-01-29T17:31:57;19.75;;;10.48;;
45684;SDS011;46836;48.388;16.210;2023-01-29T17:34:29;15.45;;;9.73;;
45684;SDS011;46836;48.388;16.210;2023-01-29T17:36:57;16.92;;;10.55;;
45684;SDS011;46836;48.388;16.210;2023-01-29T17:39:26;15.77;;;9.70;;
45684;SDS011;46836;48.388;16.210;2023-01-29T17:41:57;44.70;;;22.27;;